Pagrindinis puslapis
METAR-TAF:

METAR-TAF

Oro uostai :

Jaundė, Kamerūnas

platuma: 03-50N, ilguma: 011-31E, Aukštis: 751 m

Dabartinis oras

Ataskaita buvo paskelbta 48 minutes, ne 02:00 UTC
Vėjas 5 kt iš Vakarų/Pietvakarių, svyruoja nuo Pietų/Pietvakarių ir Vakarų
Temperatūra 23°C
Drėgmė 94%
Slėgis 1013 hPa
Matomumas 10 km arba daugiau
Su prošvaistėmis ne aukštis 600 ft
Mažai debesys ne aukštis 2000 ft, Liūtiniai kamuoliniai debesys.
perkūnija

METAR: FKYS 010200Z 24005KT 200V270 9999 TS BKN006 FEW020CB 23/22 Q1013 BECMG NSW

Laikas: 03:48 (02:48 UTC)

Prognozė

Ataskaita buvo paskelbta 9 valandos ir 48 minutes, ne 17:00 UTC
Prognozė galioja nuo 31 metu 18 UTC su 01 metu 18 UTC
Vėjas 6 kt iš Vakarų
Matomumas 10 km arba daugiau
Su prošvaistėmis ne aukštis 600 ft
Mažai debesys ne aukštis 2000 ft, Liūtiniai kamuoliniai debesys.
Tikimybė 30%
nuo 31 metu 19 UTC su 31 metu 24 UTC
perkūnija, lietus
Laikinai
nuo 01 metu 04 UTC su 01 metu 07 UTC
Matomumas: 3000 m
rūkana

TAF: FKYS 311700Z 3118/0118 26006KT 9999 BKN006 FEW020CB PROB30 3119/3124 -TSRA TEMPO 0104/0107 3000 BR

Orai ataskaitas ir orų prognozės (METAR, TAF).

turimą stotys yra geltonos ir raudonos taškus žemėlapyje.

Perkelti pele per norėdami pamatyti stoties vardą.

Tada spustelėkite, norėdami matyti oro stebėjimo ir prognozės.

Norėdami pakeisti žemėlapį: spustelėkite ant žalios mygtukų su juodo kryžiaus žemyn,; žalią mygtuką su brūkšneliu, jei norite nutolinti; arba žalių rodyklių gretimoms žemėlapius.


METAR-TAF: